createdAt,value
2022-08-22T00:01:54.340Z,2.45
2022-08-22T00:02:57.967Z,2.35
2022-08-22T00:04:47.436Z,2.38
2022-08-22T00:07:32.498Z,2.90
2022-08-22T00:10:23.566Z,2.35
2022-08-22T00:13:10.556Z,2.70
2022-08-22T00:15:44.277Z,2.55
2022-08-22T00:18:13.684Z,2.63
2022-08-22T00:20:55.268Z,2.40
2022-08-22T00:23:30.303Z,2.20
2022-08-22T00:26:24.144Z,2.67
2022-08-22T00:29:00.686Z,2.38
2022-08-22T00:31:33.004Z,2.47
2022-08-22T00:34:29.400Z,2.45
2022-08-22T00:37:08.113Z,2.20
2022-08-22T00:39:55.429Z,2.60
2022-08-22T00:42:29.491Z,2.20
2022-08-22T00:45:32.481Z,1.95
2022-08-22T00:48:27.081Z,2.30
2022-08-22T00:51:14.247Z,2.25
2022-08-22T00:54:00.197Z,2.20
2022-08-22T00:56:37.429Z,2.20
2022-08-22T00:59:31.514Z,2.50
2022-08-22T01:02:13.043Z,2.28
2022-08-22T01:05:01.247Z,2.28
2022-08-22T01:07:38.275Z,2.30
2022-08-22T01:10:32.766Z,2.28
2022-08-22T01:13:14.523Z,2.40
2022-08-22T01:15:42.762Z,2.05
2022-08-22T01:18:38.129Z,2.20
2022-08-22T01:21:20.754Z,2.00
2022-08-22T01:25:03.298Z,2.17
2022-08-22T01:28:05.224Z,2.13
2022-08-22T01:30:57.343Z,2.42
2022-08-22T01:33:55.990Z,2.25
2022-08-22T01:36:40.358Z,2.50
2022-08-22T01:39:30.205Z,2.25
2022-08-22T01:42:03.011Z,2.33
2022-08-22T01:44:46.880Z,1.98
2022-08-22T01:47:23.540Z,2.10
2022-08-22T01:49:59.381Z,2.23
2022-08-22T01:52:37.334Z,2.17
2022-08-22T01:55:31.962Z,2.78
2022-08-22T01:58:03.502Z,2.20
2022-08-22T02:00:51.241Z,2.80
2022-08-22T02:03:27.580Z,2.57
2022-08-22T02:06:14.482Z,2.33
2022-08-22T02:08:53.876Z,2.28
2022-08-22T02:11:40.181Z,2.28
2022-08-22T02:14:18.916Z,2.55
2022-08-22T02:16:50.340Z,2.53
2022-08-22T02:19:16.762Z,2.42
2022-08-22T02:22:20.265Z,2.30
2022-08-22T02:25:09.284Z,1.98
2022-08-22T02:27:54.223Z,2.30
2022-08-22T02:30:26.612Z,2.00
2022-08-22T02:33:15.488Z,2.30
2022-08-22T02:36:00.254Z,2.20
2022-08-22T02:38:40.922Z,2.00
2022-08-22T02:41:18.084Z,2.10
2022-08-22T02:43:56.701Z,2.20
2022-08-22T02:46:23.346Z,2.20
2022-08-22T02:49:06.706Z,2.47
2022-08-22T02:52:07.155Z,2.17
2022-08-22T02:54:45.395Z,2.50
2022-08-22T02:57:39.667Z,2.30
2022-08-22T03:00:31.353Z,2.20
2022-08-22T03:03:04.886Z,1.80
2022-08-22T03:05:37.196Z,2.35
2022-08-22T03:08:22.542Z,2.08
2022-08-22T03:11:02.189Z,2.00
2022-08-22T03:13:48.026Z,2.20
2022-08-22T03:16:45.508Z,2.83
2022-08-22T03:19:27.653Z,2.58
2022-08-22T03:22:03.046Z,3.03
2022-08-22T03:25:04.813Z,2.40
2022-08-22T03:27:50.082Z,1.90
2022-08-22T03:30:27.579Z,2.22
2022-08-22T03:33:13.963Z,2.53
2022-08-22T03:35:46.485Z,2.50
2022-08-22T03:38:34.384Z,2.20
2022-08-22T03:41:00.745Z,2.35
2022-08-22T03:43:51.685Z,2.17
2022-08-22T03:46:51.340Z,2.17
2022-08-22T03:49:45.721Z,2.20
2022-08-22T03:52:33.297Z,2.37
2022-08-22T03:55:14.792Z,2.53
2022-08-22T03:58:27.828Z,2.70
2022-08-22T04:01:25.109Z,2.50
2022-08-22T04:04:36.433Z,2.33
2022-08-22T04:07:32.309Z,2.17
2022-08-22T04:10:19.776Z,2.58
2022-08-22T04:13:13.059Z,2.30
2022-08-22T04:15:46.427Z,2.83
2022-08-22T04:18:34.454Z,2.30
2022-08-22T04:21:16.243Z,2.37
2022-08-22T04:23:48.608Z,2.95
2022-08-22T04:27:10.393Z,2.85
2022-08-22T04:29:45.220Z,2.13
2022-08-22T04:32:34.209Z,2.65
2022-08-22T04:35:10.863Z,2.70
2022-08-22T04:37:44.780Z,2.72
2022-08-22T04:40:25.416Z,2.67
2022-08-22T04:43:01.136Z,2.30
2022-08-22T04:45:37.551Z,2.47
2022-08-22T04:48:16.695Z,2.70
2022-08-22T04:50:54.937Z,2.70
2022-08-22T04:53:49.837Z,2.92
2022-08-22T04:56:36.015Z,2.10
2022-08-22T04:59:12.696Z,3.10
2022-08-22T05:01:53.677Z,3.10
2022-08-22T05:04:45.879Z,2.80
2022-08-22T05:07:22.151Z,2.70
2022-08-22T05:09:58.929Z,2.85
2022-08-22T05:12:50.762Z,2.88
2022-08-22T05:15:23.179Z,2.60
2022-08-22T05:17:52.955Z,2.88
2022-08-22T05:20:23.519Z,2.67
2022-08-22T05:22:59.319Z,3.17
2022-08-22T05:25:32.317Z,3.00
2022-08-22T05:28:31.213Z,2.57
2022-08-22T05:30:57.896Z,3.13
2022-08-22T05:33:29.960Z,2.95
2022-08-22T05:36:06.633Z,3.05
2022-08-22T05:38:37.983Z,3.58
2022-08-22T05:41:09.319Z,2.80
2022-08-22T05:43:42.544Z,3.10
2022-08-22T05:46:19.412Z,3.53
2022-08-22T05:49:03.656Z,3.17
2022-08-22T05:51:39.424Z,3.17
2022-08-22T05:54:15.060Z,3.17
2022-08-22T05:56:46.049Z,2.92
2022-08-22T05:59:24.561Z,3.47
2022-08-22T06:02:09.827Z,2.90
2022-08-22T06:04:45.513Z,3.40
2022-08-22T06:07:28.187Z,3.07
2022-08-22T06:10:25.761Z,3.20
2022-08-22T06:13:03.666Z,3.03
2022-08-22T06:15:39.966Z,3.15
2022-08-22T06:18:12.656Z,3.55
2022-08-22T06:20:52.374Z,3.20
2022-08-22T06:23:26.580Z,4.03
2022-08-22T06:25:57.164Z,3.88
2022-08-22T06:28:26.770Z,3.78
2022-08-22T06:30:56.022Z,3.70
2022-08-22T06:33:26.571Z,3.40
2022-08-22T06:36:20.535Z,3.55
2022-08-22T06:39:05.526Z,4.05
2022-08-22T06:41:37.546Z,4.20
2022-08-22T06:44:05.785Z,4.30
2022-08-22T06:46:36.237Z,3.80
2022-08-22T06:49:06.424Z,3.85
2022-08-22T06:51:36.177Z,3.53
2022-08-22T06:54:05.198Z,3.80
2022-08-22T06:56:41.520Z,3.70
2022-08-22T06:59:14.603Z,3.97
2022-08-22T07:01:51.055Z,3.75
2022-08-22T07:04:21.208Z,4.43
2022-08-22T07:06:50.375Z,3.90
2022-08-22T07:09:23.472Z,3.58
2022-08-22T07:11:52.130Z,3.83
2022-08-22T07:14:29.731Z,4.15
2022-08-22T07:16:59.256Z,4.28
2022-08-22T07:19:32.908Z,4.03
2022-08-22T07:22:09.776Z,4.05
2022-08-22T07:24:36.496Z,4.07
2022-08-22T07:27:08.413Z,4.35
2022-08-22T07:29:56.563Z,3.85
2022-08-22T07:32:30.277Z,4.28
2022-08-22T07:35:15.786Z,4.38
2022-08-22T07:37:54.328Z,4.70
2022-08-22T07:40:27.292Z,4.38
2022-08-22T07:43:23.073Z,4.07
2022-08-22T07:45:54.364Z,4.10
2022-08-22T07:48:26.972Z,4.32
2022-08-22T07:51:08.726Z,3.77
2022-08-22T07:53:41.544Z,4.63
2022-08-22T07:56:16.636Z,5.00
2022-08-22T07:58:47.072Z,4.53
2022-08-22T08:01:19.269Z,4.20
2022-08-22T08:04:01.482Z,4.23
2022-08-22T08:06:29.241Z,4.68
2022-08-22T08:08:57.259Z,4.85
2022-08-22T08:11:27.899Z,3.55
2022-08-22T08:14:05.135Z,4.13
2022-08-22T08:16:40.821Z,4.33
2022-08-22T08:19:08.856Z,4.35
2022-08-22T08:21:47.356Z,4.35
2022-08-22T08:24:19.278Z,4.15
2022-08-22T08:27:19.529Z,3.85
2022-08-22T08:29:54.436Z,3.40
2022-08-22T08:32:24.308Z,3.72
2022-08-22T08:34:52.125Z,3.50
2022-08-22T08:37:23.690Z,3.10
2022-08-22T08:39:53.414Z,3.60
2022-08-22T08:42:54.817Z,3.30
2022-08-22T08:45:32.505Z,3.72
2022-08-22T08:48:07.920Z,3.83
2022-08-22T08:50:59.300Z,3.40
2022-08-22T08:53:58.494Z,3.85
2022-08-22T08:56:34.162Z,4.10
2022-08-22T08:59:14.515Z,3.95
2022-08-22T09:02:13.926Z,3.50
2022-08-22T09:04:58.965Z,3.85
2022-08-22T09:07:28.308Z,3.92
2022-08-22T09:10:32.531Z,3.60
2022-08-22T09:13:40.845Z,3.83
2022-08-22T09:16:27.633Z,4.68
2022-08-22T09:19:28.194Z,3.92
2022-08-22T09:22:14.306Z,4.00
2022-08-22T09:24:47.179Z,3.53
2022-08-22T09:27:32.316Z,4.57
2022-08-22T09:30:15.382Z,4.38
2022-08-22T09:32:54.540Z,4.40
2022-08-22T09:35:28.124Z,4.00
2022-08-22T09:38:28.624Z,3.93
2022-08-22T09:41:23.355Z,2.85
2022-08-22T09:44:29.267Z,3.25
2022-08-22T09:47:24.533Z,3.83
2022-08-22T09:50:03.907Z,3.60
2022-08-22T09:52:51.304Z,2.70
2022-08-22T09:55:42.803Z,2.83
2022-08-22T09:58:30.471Z,2.80
2022-08-22T10:01:02.176Z,3.10
2022-08-22T10:04:23.234Z,2.67
2022-08-22T10:07:14.603Z,2.97
2022-08-22T10:09:44.102Z,3.17
2022-08-22T10:12:20.691Z,2.90
2022-08-22T10:15:16.043Z,3.80
2022-08-22T10:17:55.048Z,3.80
2022-08-22T10:20:30.142Z,3.23
2022-08-22T10:23:00.316Z,3.15
2022-08-22T10:25:49.888Z,2.42
2022-08-22T10:28:34.603Z,2.70
2022-08-22T10:31:25.234Z,2.40
2022-08-22T10:34:12.328Z,2.27
2022-08-22T10:36:53.965Z,3.60
2022-08-22T10:39:26.753Z,3.05
2022-08-22T10:42:28.954Z,3.45
2022-08-22T10:45:23.788Z,3.20
2022-08-22T10:48:04.808Z,2.73
2022-08-22T10:50:45.442Z,2.30
2022-08-22T10:53:37.157Z,2.50
2022-08-22T10:56:13.927Z,2.85
2022-08-22T10:58:44.647Z,2.38
2022-08-22T11:01:41.499Z,2.97
2022-08-22T11:04:16.885Z,2.70
2022-08-22T11:06:54.807Z,2.80
2022-08-22T11:09:36.922Z,3.28
2022-08-22T11:12:34.605Z,2.70
2022-08-22T11:15:34.432Z,2.37
2022-08-22T11:18:17.533Z,2.40
2022-08-22T11:21:00.761Z,2.58
2022-08-22T11:23:53.208Z,2.65
2022-08-22T11:26:47.086Z,2.47
2022-08-22T11:29:43.554Z,2.23
2022-08-22T11:32:57.962Z,2.38
2022-08-22T11:35:36.791Z,2.17
2022-08-22T11:38:32.832Z,2.75
2022-08-22T11:41:12.553Z,2.20
2022-08-22T11:43:49.565Z,2.40
2022-08-22T11:46:43.275Z,2.97
2022-08-22T11:49:32.738Z,2.20
2022-08-22T11:52:33.335Z,2.28
2022-08-22T11:55:16.818Z,2.30
2022-08-22T11:57:54.922Z,2.40
2022-08-22T12:00:25.361Z,2.50
2022-08-22T12:03:31.792Z,2.00
2022-08-22T12:06:05.003Z,2.17
2022-08-22T12:08:34.028Z,2.10
2022-08-22T12:11:25.599Z,2.60
2022-08-22T12:14:02.386Z,2.88
2022-08-22T12:16:45.069Z,2.60
2022-08-22T12:19:42.027Z,2.10
2022-08-22T12:22:34.570Z,2.60
2022-08-22T12:25:38.598Z,2.20
2022-08-22T12:28:41.644Z,2.50
2022-08-22T12:31:30.758Z,1.92
2022-08-22T12:34:14.364Z,2.22
2022-08-22T12:36:58.079Z,2.28
2022-08-22T12:40:18.276Z,2.40
2022-08-22T12:43:19.995Z,2.60
2022-08-22T12:46:16.546Z,2.28
2022-08-22T12:48:59.737Z,2.65
2022-08-22T12:51:41.076Z,2.65
2022-08-22T12:55:01.433Z,2.53
2022-08-22T12:57:58.082Z,2.42
2022-08-22T13:00:40.237Z,2.42
2022-08-22T13:03:12.714Z,2.40
2022-08-22T13:05:56.757Z,2.10
2022-08-22T13:08:35.299Z,2.40
2022-08-22T13:11:23.333Z,2.42
2022-08-22T13:13:56.562Z,2.03
2022-08-22T13:16:26.193Z,2.03
2022-08-22T13:19:08.068Z,2.35
2022-08-22T13:21:46.222Z,2.20
2022-08-22T13:24:39.135Z,2.10
2022-08-22T13:27:21.149Z,2.20
2022-08-22T13:29:57.030Z,2.00
2022-08-22T13:32:32.592Z,2.33
2022-08-22T13:35:01.083Z,2.20
2022-08-22T13:38:00.698Z,2.20
2022-08-22T13:40:30.744Z,2.38
2022-08-22T13:43:11.308Z,2.20
2022-08-22T13:45:42.058Z,2.00
2022-08-22T13:48:12.036Z,2.10
2022-08-22T13:51:04.249Z,2.00
2022-08-22T13:53:44.166Z,2.50
2022-08-22T13:56:31.371Z,2.17
2022-08-22T13:59:03.176Z,2.20
2022-08-22T14:02:18.304Z,2.30
2022-08-22T14:04:47.796Z,2.22
2022-08-22T14:07:24.573Z,2.15
2022-08-22T14:10:02.782Z,2.30
2022-08-22T14:12:50.780Z,2.40
2022-08-22T14:15:32.100Z,2.23
2022-08-22T14:18:18.459Z,2.20
2022-08-22T14:20:47.558Z,2.28
2022-08-22T14:23:23.918Z,2.13
2022-08-22T14:25:54.061Z,2.30
2022-08-22T14:28:32.266Z,2.03
2022-08-22T14:31:07.240Z,2.10
2022-08-22T14:33:39.891Z,1.92
2022-08-22T14:36:19.039Z,2.05
2022-08-22T14:38:57.806Z,1.77
2022-08-22T14:42:04.153Z,2.43
2022-08-22T14:44:44.304Z,2.30
2022-08-22T14:47:32.346Z,1.77
2022-08-22T14:50:38.859Z,2.30
2022-08-22T14:53:12.917Z,1.98
2022-08-22T14:55:42.281Z,2.00
2022-08-22T14:58:18.317Z,2.00
2022-08-22T15:00:55.936Z,2.10
2022-08-22T15:03:28.193Z,2.00
2022-08-22T15:06:00.539Z,2.05
2022-08-22T15:08:32.824Z,2.20
2022-08-22T15:11:21.745Z,2.33
2022-08-22T15:13:59.403Z,2.20
2022-08-22T15:16:34.182Z,2.03
2022-08-22T15:19:02.313Z,2.25
2022-08-22T15:21:31.832Z,1.90
2022-08-22T15:24:09.912Z,2.20
2022-08-22T15:26:50.053Z,2.30
2022-08-22T15:29:27.681Z,2.13
2022-08-22T15:32:00.781Z,2.30
2022-08-22T15:34:38.154Z,2.00
2022-08-22T15:37:09.868Z,2.20
2022-08-22T15:39:59.354Z,2.10
2022-08-22T15:42:30.488Z,1.92
2022-08-22T15:44:58.232Z,2.08
2022-08-22T15:47:36.150Z,2.40
2022-08-22T15:50:08.667Z,2.25
2022-08-22T15:53:14.125Z,2.20
2022-08-22T15:56:12.694Z,2.15
2022-08-22T15:58:48.768Z,1.92
2022-08-22T16:01:20.802Z,1.90
2022-08-22T16:04:00.567Z,1.95
2022-08-22T16:07:01.136Z,2.45
2022-08-22T16:09:44.271Z,2.05
2022-08-22T16:12:26.614Z,1.90
2022-08-22T16:14:53.701Z,2.00
2022-08-22T16:17:25.941Z,2.13
2022-08-22T16:20:07.627Z,1.83
2022-08-22T16:22:57.832Z,2.08
2022-08-22T16:25:46.637Z,2.20
2022-08-22T16:28:57.253Z,2.13
2022-08-22T16:31:36.133Z,2.10
2022-08-22T16:34:17.772Z,2.38
2022-08-22T16:37:02.721Z,2.25
2022-08-22T16:39:37.235Z,1.85
2022-08-22T16:42:12.824Z,1.97
2022-08-22T16:44:45.555Z,2.15
2022-08-22T16:47:16.811Z,2.22
2022-08-22T16:49:48.880Z,1.92
2022-08-22T16:52:24.426Z,1.98
2022-08-22T16:55:01.227Z,2.10
2022-08-22T16:58:05.595Z,2.17
2022-08-22T17:00:44.053Z,2.17
2022-08-22T17:03:20.569Z,2.15
2022-08-22T17:06:18.198Z,2.22
2022-08-22T17:08:56.992Z,2.10
2022-08-22T17:11:51.368Z,2.58
2022-08-22T17:14:54.585Z,2.38
2022-08-22T17:17:36.233Z,2.20
2022-08-22T17:20:22.800Z,2.25
2022-08-22T17:23:00.107Z,2.30
2022-08-22T17:25:36.425Z,2.40
2022-08-22T17:28:39.993Z,2.20
2022-08-22T17:31:15.749Z,2.50
2022-08-22T17:34:02.440Z,2.40
2022-08-22T17:36:42.609Z,2.50
2022-08-22T17:39:39.338Z,2.38
2022-08-22T17:42:23.862Z,2.30
2022-08-22T17:45:03.388Z,2.50
2022-08-22T17:47:47.374Z,2.40
2022-08-22T17:50:25.953Z,2.30
2022-08-22T17:52:59.492Z,2.17
2022-08-22T17:55:32.604Z,2.53
2022-08-22T17:58:36.061Z,2.13
2022-08-22T18:01:20.033Z,2.40
2022-08-22T18:03:57.946Z,2.40
2022-08-22T18:06:30.494Z,2.50
2022-08-22T18:09:18.552Z,2.40
2022-08-22T18:11:52.650Z,1.85
2022-08-22T18:14:40.514Z,2.40
2022-08-22T18:17:18.174Z,2.43
2022-08-22T18:20:04.672Z,2.30
2022-08-22T18:22:41.058Z,2.80
2022-08-22T18:25:31.996Z,2.30
2022-08-22T18:28:10.048Z,2.13
2022-08-22T18:30:54.378Z,2.50
2022-08-22T18:33:41.808Z,2.60
2022-08-22T18:36:21.095Z,2.40
2022-08-22T18:39:04.270Z,2.92
2022-08-22T18:41:50.217Z,2.20
2022-08-22T18:44:23.644Z,2.10
2022-08-22T18:46:52.810Z,2.10
2022-08-22T18:49:22.124Z,2.40
2022-08-22T18:52:14.836Z,2.10
2022-08-22T18:54:55.421Z,2.25
2022-08-22T18:57:45.025Z,2.47
2022-08-22T19:00:16.961Z,2.30
2022-08-22T19:03:12.659Z,2.33
2022-08-22T19:06:12.495Z,2.00
2022-08-22T19:08:55.808Z,2.58
2022-08-22T19:11:40.904Z,2.03
2022-08-22T19:14:21.911Z,2.17
2022-08-22T19:17:17.860Z,2.00
2022-08-22T19:20:15.268Z,2.10
2022-08-22T19:22:42.644Z,2.08
2022-08-22T19:25:15.204Z,2.53
2022-08-22T19:28:02.461Z,2.17
2022-08-22T19:30:50.411Z,2.42
2022-08-22T19:33:16.753Z,2.38
2022-08-22T19:36:05.386Z,2.00
2022-08-22T19:38:59.884Z,2.27
2022-08-22T19:41:39.420Z,2.10
2022-08-22T19:44:34.557Z,2.05
2022-08-22T19:47:29.061Z,2.30
2022-08-22T19:50:17.962Z,2.05
2022-08-22T19:52:47.125Z,2.53
2022-08-22T19:55:22.286Z,2.45
2022-08-22T19:58:05.499Z,2.58
2022-08-22T20:00:57.681Z,2.70
2022-08-22T20:03:43.828Z,2.75
2022-08-22T20:06:43.942Z,2.40
2022-08-22T20:09:32.707Z,2.28
2022-08-22T20:12:15.140Z,2.90
2022-08-22T20:14:44.203Z,2.15
2022-08-22T20:17:25.783Z,2.70
2022-08-22T20:20:17.640Z,2.60
2022-08-22T20:22:49.502Z,2.30
2022-08-22T20:25:43.136Z,2.60
2022-08-22T20:28:33.783Z,2.95
2022-08-22T20:31:04.657Z,2.83
2022-08-22T20:33:35.392Z,3.00
2022-08-22T20:36:06.164Z,2.50
2022-08-22T20:38:55.400Z,2.28
2022-08-22T20:41:36.890Z,2.53
2022-08-22T20:44:23.706Z,2.45
2022-08-22T20:46:57.475Z,2.90
2022-08-22T20:49:31.471Z,2.78
2022-08-22T20:52:00.859Z,2.78
2022-08-22T20:54:33.025Z,2.92
2022-08-22T20:57:09.968Z,3.10
2022-08-22T20:59:41.404Z,2.90
2022-08-22T21:02:25.737Z,3.20
2022-08-22T21:05:00.173Z,3.20
2022-08-22T21:07:32.545Z,3.05
2022-08-22T21:10:40.518Z,3.10
2022-08-22T21:13:19.705Z,2.90
2022-08-22T21:15:50.713Z,3.63
2022-08-22T21:18:34.089Z,2.80
2022-08-22T21:21:20.499Z,3.13
2022-08-22T21:23:52.471Z,2.95
2022-08-22T21:26:21.094Z,3.10
2022-08-22T21:28:58.753Z,3.25
2022-08-22T21:31:30.162Z,2.90
2022-08-22T21:33:57.235Z,3.28
2022-08-22T21:36:27.366Z,3.25
2022-08-22T21:39:06.451Z,3.10
2022-08-22T21:41:47.237Z,3.63
2022-08-22T21:44:32.097Z,3.05
2022-08-22T21:47:30.707Z,3.42
2022-08-22T21:50:13.173Z,3.40
2022-08-22T21:52:59.616Z,3.33
2022-08-22T21:55:38.224Z,3.53
2022-08-22T21:58:32.625Z,3.47
2022-08-22T22:01:27.291Z,2.97
2022-08-22T22:03:54.627Z,3.78
2022-08-22T22:06:21.077Z,3.93
2022-08-22T22:08:47.758Z,3.58
2022-08-22T22:11:15.380Z,3.55
2022-08-22T22:13:42.307Z,3.97
2022-08-22T22:16:12.037Z,3.88
2022-08-22T22:18:39.522Z,3.57
2022-08-22T22:21:06.337Z,4.32
2022-08-22T22:23:32.820Z,4.38
2022-08-22T22:26:02.266Z,3.88
2022-08-22T22:28:31.703Z,4.07
2022-08-22T22:30:58.195Z,3.50
2022-08-22T22:33:28.020Z,4.03
2022-08-22T22:35:57.054Z,4.00
2022-08-22T22:38:24.394Z,3.58
2022-08-22T22:40:52.174Z,3.80
2022-08-22T22:43:18.814Z,4.00
2022-08-22T22:45:45.283Z,3.60
2022-08-22T22:48:11.810Z,3.70
2022-08-22T22:50:50.332Z,3.60
2022-08-22T22:53:19.912Z,3.53
2022-08-22T22:55:59.573Z,3.53
2022-08-22T22:58:26.992Z,3.47
2022-08-22T23:00:53.404Z,3.65
2022-08-22T23:03:20.162Z,3.17
2022-08-22T23:05:46.644Z,4.20
2022-08-22T23:08:13.011Z,3.43
2022-08-22T23:10:39.452Z,3.80
2022-08-22T23:13:06.479Z,3.65
2022-08-22T23:15:32.820Z,3.72
2022-08-22T23:17:59.304Z,3.65
2022-08-22T23:20:25.841Z,4.37
2022-08-22T23:22:52.349Z,3.78
2022-08-22T23:25:18.887Z,3.30
2022-08-22T23:27:45.315Z,3.65
2022-08-22T23:30:18.745Z,3.75
2022-08-22T23:32:45.114Z,3.60
2022-08-22T23:35:11.616Z,3.30
2022-08-22T23:37:38.139Z,3.83
2022-08-22T23:40:07.561Z,3.85
2022-08-22T23:42:34.057Z,3.60
2022-08-22T23:45:00.460Z,3.77
2022-08-22T23:47:26.948Z,3.50
2022-08-22T23:49:53.381Z,3.90
2022-08-22T23:52:20.712Z,3.45
2022-08-22T23:54:47.313Z,4.22
2022-08-22T23:57:20.684Z,3.73
2022-08-22T23:59:57.782Z,3.80
